createdAt,value
2022-12-08T00:01:14.536Z,2.72
2022-12-08T00:03:41.998Z,5.53
2022-12-08T00:06:38.142Z,5.32
2022-12-08T00:09:22.509Z,3.72
2022-12-08T00:11:53.166Z,4.75
2022-12-08T00:14:22.250Z,3.22
2022-12-08T00:16:49.789Z,6.27
2022-12-08T00:19:16.197Z,4.70
2022-12-08T00:21:42.554Z,3.17
2022-12-08T00:24:09.024Z,3.17
2022-12-08T00:26:36.783Z,2.92
2022-12-08T00:29:03.484Z,3.90
2022-12-08T00:31:30.099Z,4.78
2022-12-08T00:33:56.575Z,3.42
2022-12-08T00:36:22.936Z,3.88
2022-12-08T00:38:49.371Z,4.43
2022-12-08T00:41:18.148Z,4.93
2022-12-08T00:43:44.625Z,2.97
2022-12-08T00:46:12.044Z,3.72
2022-12-08T00:48:39.135Z,3.33
2022-12-08T00:51:05.658Z,4.47
2022-12-08T00:53:32.259Z,4.23
2022-12-08T00:55:58.747Z,4.82
2022-12-08T00:58:25.125Z,2.85
2022-12-08T01:00:51.697Z,5.35
2022-12-08T01:03:18.243Z,2.67
2022-12-08T01:05:44.706Z,5.57
2022-12-08T01:08:11.188Z,3.50
2022-12-08T01:10:39.509Z,5.18
2022-12-08T01:13:06.240Z,5.60
2022-12-08T01:15:32.614Z,3.22
2022-12-08T01:17:59.010Z,3.37
2022-12-08T01:20:25.388Z,3.65
2022-12-08T01:22:51.729Z,3.95
2022-12-08T01:25:18.148Z,6.38
2022-12-08T01:27:44.510Z,4.25
2022-12-08T01:30:11.370Z,4.60
2022-12-08T01:32:37.772Z,5.18
2022-12-08T01:35:04.269Z,5.25
2022-12-08T01:37:30.809Z,3.50
2022-12-08T01:39:57.159Z,3.05
2022-12-08T01:42:24.743Z,3.60
2022-12-08T01:44:58.254Z,4.47
2022-12-08T01:47:29.734Z,5.28
2022-12-08T01:49:56.287Z,5.45
2022-12-08T01:52:29.132Z,2.17
2022-12-08T01:55:15.512Z,2.97
2022-12-08T01:57:47.796Z,1.92
2022-12-08T02:00:17.066Z,3.95
2022-12-08T02:02:52.926Z,2.10
2022-12-08T02:05:22.618Z,2.20
2022-12-08T02:07:49.730Z,2.60
2022-12-08T02:10:20.386Z,1.10
2022-12-08T02:12:48.232Z,1.90
2022-12-08T02:15:15.330Z,2.33
2022-12-08T02:17:58.189Z,4.35
2022-12-08T02:20:37.857Z,2.43
2022-12-08T02:23:23.587Z,1.98
2022-12-08T02:26:06.816Z,1.73
2022-12-08T02:29:00.470Z,1.60
2022-12-08T02:32:04.510Z,2.05
2022-12-08T02:35:00.330Z,2.53
2022-12-08T02:37:29.583Z,2.00
2022-12-08T02:40:07.197Z,5.72
2022-12-08T02:42:39.949Z,2.88
2022-12-08T02:45:14.815Z,2.67
2022-12-08T02:47:41.262Z,4.63
2022-12-08T02:50:08.226Z,6.13
2022-12-08T02:52:34.501Z,2.90
2022-12-08T02:55:06.530Z,5.25
2022-12-08T02:58:10.155Z,3.25
2022-12-08T03:00:53.650Z,2.90
2022-12-08T03:03:35.724Z,2.42
2022-12-08T03:06:32.423Z,4.32
2022-12-08T03:09:14.247Z,3.97
2022-12-08T03:11:48.524Z,3.42
2022-12-08T03:14:17.371Z,2.90
2022-12-08T03:16:48.605Z,2.65
2022-12-08T03:19:23.862Z,2.72
2022-12-08T03:22:02.692Z,4.82
2022-12-08T03:24:36.147Z,3.53
2022-12-08T03:27:07.150Z,2.87
2022-12-08T03:29:34.271Z,6.63
2022-12-08T03:32:11.382Z,5.75
2022-12-08T03:34:40.241Z,3.58
2022-12-08T03:37:07.025Z,2.40
2022-12-08T03:39:33.453Z,2.53
2022-12-08T03:41:59.818Z,4.07
2022-12-08T03:44:26.258Z,2.67
2022-12-08T03:46:52.689Z,3.72
2022-12-08T03:49:19.041Z,3.33
2022-12-08T03:51:45.419Z,3.40
2022-12-08T03:54:11.775Z,3.50
2022-12-08T03:56:39.544Z,3.97
2022-12-08T03:59:07.399Z,3.38
2022-12-08T04:01:34.266Z,1.60
2022-12-08T04:04:00.791Z,1.10
2022-12-08T04:06:27.674Z,2.80
2022-12-08T04:08:54.456Z,3.78
2022-12-08T04:11:21.068Z,2.00
2022-12-08T04:13:47.810Z,2.00
2022-12-08T04:16:24.873Z,2.50
2022-12-08T04:18:51.349Z,2.22
2022-12-08T04:21:18.135Z,0.60
2022-12-08T04:23:44.961Z,1.48
2022-12-08T04:26:11.773Z,0.88
2022-12-08T04:28:38.591Z,1.20
2022-12-08T04:31:05.484Z,2.30
2022-12-08T04:33:31.989Z,2.97
2022-12-08T04:35:58.451Z,1.35
2022-12-08T04:38:24.908Z,2.72
2022-12-08T04:40:51.403Z,0.50
2022-12-08T04:43:17.829Z,3.08
2022-12-08T04:45:44.231Z,0.57
2022-12-08T04:48:13.149Z,1.85
2022-12-08T04:50:44.717Z,2.47
2022-12-08T04:53:12.325Z,0.30
2022-12-08T04:55:41.213Z,1.50
2022-12-08T04:58:12.300Z,2.47
2022-12-08T05:00:38.703Z,2.53
2022-12-08T05:03:05.378Z,1.45
2022-12-08T05:05:31.848Z,3.90
2022-12-08T05:07:58.362Z,3.38
2022-12-08T05:10:24.853Z,1.05
2022-12-08T05:12:51.238Z,3.45
2022-12-08T05:15:17.981Z,3.67
2022-12-08T05:17:44.484Z,1.13
2022-12-08T05:20:11.415Z,1.20
2022-12-08T05:22:37.786Z,1.08
2022-12-08T05:25:04.431Z,2.33
2022-12-08T05:27:30.790Z,1.13
2022-12-08T05:29:57.171Z,1.13
2022-12-08T05:32:23.550Z,1.73
2022-12-08T05:34:50.100Z,1.95
2022-12-08T05:37:16.643Z,1.33
2022-12-08T05:39:43.088Z,0.43
2022-12-08T05:42:09.657Z,0.60
2022-12-08T05:44:36.126Z,1.70
2022-12-08T05:47:02.699Z,6.25
2022-12-08T05:49:29.195Z,1.88
2022-12-08T05:51:55.579Z,2.88
2022-12-08T05:54:22.137Z,1.33
2022-12-08T05:56:49.202Z,2.10
2022-12-08T05:59:16.613Z,1.17
2022-12-08T06:01:43.047Z,1.83
2022-12-08T06:04:10.372Z,0.70
2022-12-08T06:06:37.029Z,5.10
2022-12-08T06:09:04.824Z,0.55
2022-12-08T06:11:32.156Z,0.85
2022-12-08T06:13:59.004Z,4.75
2022-12-08T06:16:27.038Z,1.77
2022-12-08T06:18:53.876Z,2.10
2022-12-08T06:21:20.737Z,1.00
2022-12-08T06:23:52.502Z,0.43
2022-12-08T06:26:19.893Z,3.42
2022-12-08T06:28:46.853Z,1.50
2022-12-08T06:31:16.378Z,0.73
2022-12-08T06:33:43.123Z,1.10
2022-12-08T06:36:12.747Z,2.13
2022-12-08T06:38:43.333Z,2.45
2022-12-08T06:41:11.284Z,1.55
2022-12-08T06:43:37.772Z,2.50
2022-12-08T06:46:06.388Z,0.68
2022-12-08T06:48:32.868Z,2.10
2022-12-08T06:51:13.107Z,1.05
2022-12-08T06:53:40.464Z,1.83
2022-12-08T06:56:07.512Z,0.53
2022-12-08T06:58:34.264Z,0.63
2022-12-08T07:01:09.658Z,1.13
2022-12-08T07:03:37.290Z,1.42
2022-12-08T07:06:04.798Z,0.40
2022-12-08T07:08:32.972Z,0.53
2022-12-08T07:10:59.790Z,1.02
2022-12-08T07:13:26.320Z,0.40
2022-12-08T07:15:55.029Z,0.65
2022-12-08T07:18:21.467Z,0.70
2022-12-08T07:20:48.032Z,2.87
2022-12-08T07:23:14.839Z,0.98
2022-12-08T07:25:41.237Z,1.20
2022-12-08T07:28:09.304Z,0.77
2022-12-08T07:30:35.795Z,0.80
2022-12-08T07:33:04.568Z,1.57
2022-12-08T07:35:31.021Z,2.22
2022-12-08T07:37:57.754Z,1.15
2022-12-08T07:40:24.165Z,1.58
2022-12-08T07:42:50.709Z,3.25
2022-12-08T07:45:17.205Z,1.60
2022-12-08T07:47:43.745Z,1.40
2022-12-08T07:50:10.264Z,1.77
2022-12-08T07:52:36.941Z,2.08
2022-12-08T07:55:03.522Z,1.77
2022-12-08T07:57:29.955Z,2.17
2022-12-08T07:59:56.320Z,1.95
2022-12-08T08:02:25.567Z,3.75
2022-12-08T08:04:53.203Z,1.90
2022-12-08T08:07:19.891Z,2.85
2022-12-08T08:09:46.297Z,2.03
2022-12-08T08:15:00.430Z,1.52
2022-12-08T08:17:26.951Z,2.47
2022-12-08T08:19:53.473Z,1.58
2022-12-08T08:22:20.016Z,2.97
2022-12-08T08:24:46.367Z,3.13
2022-12-08T08:27:12.916Z,1.85
2022-12-08T08:29:39.614Z,2.20
2022-12-08T08:32:06.103Z,2.17
2022-12-08T08:34:32.460Z,1.50
2022-12-08T08:36:58.932Z,1.65
2022-12-08T08:39:25.576Z,1.90
2022-12-08T08:41:52.161Z,2.83
2022-12-08T08:44:18.847Z,0.98
2022-12-08T08:46:45.309Z,2.97
2022-12-08T08:49:11.782Z,1.15
2022-12-08T08:51:38.202Z,1.30
2022-12-08T08:54:04.794Z,2.33
2022-12-08T08:56:31.356Z,0.70
2022-12-08T08:58:57.875Z,0.53
2022-12-08T09:01:27.852Z,2.70
2022-12-08T09:03:55.589Z,0.73
2022-12-08T09:06:23.383Z,1.23
2022-12-08T09:08:50.836Z,0.80
2022-12-08T09:11:18.634Z,0.77
2022-12-08T09:13:49.163Z,0.52
2022-12-08T09:16:16.689Z,0.60
2022-12-08T09:18:43.603Z,1.27
2022-12-08T09:21:14.940Z,0.40
2022-12-08T09:23:41.339Z,0.30
2022-12-08T09:26:08.274Z,0.45
2022-12-08T09:28:34.760Z,0.30
2022-12-08T09:31:01.213Z,0.35
2022-12-08T09:33:27.814Z,0.98
2022-12-08T09:35:54.214Z,0.60
2022-12-08T09:38:20.780Z,1.08
2022-12-08T09:40:52.436Z,0.70
2022-12-08T09:43:26.899Z,0.43
2022-12-08T09:45:54.933Z,3.08
2022-12-08T09:48:45.362Z,0.80
2022-12-08T09:51:14.724Z,0.60
2022-12-08T09:53:48.315Z,1.30
2022-12-08T09:56:36.645Z,2.58
2022-12-08T09:59:16.848Z,0.73
2022-12-08T10:01:43.333Z,0.70
2022-12-08T10:04:32.409Z,2.53
2022-12-08T10:07:20.740Z,0.90
2022-12-08T10:09:55.537Z,0.85
2022-12-08T10:12:40.319Z,6.65
2022-12-08T10:15:27.044Z,0.70
2022-12-08T10:17:54.810Z,1.77
2022-12-08T10:20:25.321Z,1.05
2022-12-08T10:23:20.965Z,1.65
2022-12-08T10:25:50.085Z,1.75
2022-12-08T10:28:16.529Z,3.30
2022-12-08T10:30:43.330Z,2.13
2022-12-08T10:33:19.883Z,1.73
2022-12-08T10:36:06.116Z,2.30
2022-12-08T10:38:35.486Z,2.15
2022-12-08T10:41:11.034Z,0.90
2022-12-08T10:43:46.164Z,1.02
2022-12-08T10:46:16.507Z,0.98
2022-12-08T10:49:10.421Z,1.48
2022-12-08T10:51:39.386Z,0.70
2022-12-08T10:54:24.324Z,0.57
2022-12-08T10:56:55.479Z,0.30
2022-12-08T10:59:21.959Z,0.80
2022-12-08T11:01:51.157Z,0.38
2022-12-08T11:04:20.307Z,1.23
2022-12-08T11:06:48.619Z,0.60
2022-12-08T11:09:17.995Z,1.20
2022-12-08T11:11:58.193Z,1.17
2022-12-08T11:14:30.868Z,2.10
2022-12-08T11:17:05.799Z,1.42
2022-12-08T11:19:37.672Z,0.40
2022-12-08T11:22:32.229Z,2.65
2022-12-08T11:25:27.995Z,0.57
2022-12-08T11:27:57.845Z,0.60
2022-12-08T11:30:25.716Z,0.45
2022-12-08T11:33:13.278Z,0.50
2022-12-08T11:35:43.797Z,0.32
2022-12-08T11:38:22.713Z,0.22
2022-12-08T11:40:57.066Z,0.40
2022-12-08T11:43:49.713Z,0.93
2022-12-08T11:46:32.670Z,0.73
2022-12-08T11:49:06.810Z,1.05
2022-12-08T11:51:37.852Z,1.23
2022-12-08T11:54:30.263Z,0.40
2022-12-08T11:56:58.923Z,0.35
2022-12-08T11:59:39.491Z,0.70
2022-12-08T12:02:14.414Z,1.75
2022-12-08T12:04:49.889Z,1.40
2022-12-08T12:07:26.180Z,1.25
2022-12-08T12:10:08.529Z,1.00
2022-12-08T12:12:59.674Z,2.00
2022-12-08T12:15:26.048Z,0.55
2022-12-08T12:18:05.401Z,0.90
2022-12-08T12:20:41.450Z,0.80
2022-12-08T12:23:19.379Z,1.05
2022-12-08T12:25:58.061Z,0.70
2022-12-08T12:28:27.844Z,1.60
2022-12-08T12:31:01.180Z,0.20
2022-12-08T12:33:29.882Z,1.85
2022-12-08T12:35:58.440Z,0.50
2022-12-08T12:38:53.126Z,0.50
2022-12-08T12:41:27.776Z,0.73
2022-12-08T12:44:28.453Z,1.00
2022-12-08T12:47:03.174Z,0.93
2022-12-08T12:49:38.579Z,0.50
2022-12-08T12:52:18.028Z,0.50
2022-12-08T12:55:05.355Z,0.30
2022-12-08T12:57:58.119Z,0.68
2022-12-08T13:00:27.365Z,0.88
2022-12-08T13:02:57.672Z,0.43
2022-12-08T13:05:27.272Z,3.50
2022-12-08T13:07:57.997Z,0.52
2022-12-08T13:10:32.392Z,1.42
2022-12-08T13:13:01.749Z,1.30
2022-12-08T13:15:38.401Z,1.15
2022-12-08T13:18:07.460Z,1.00
2022-12-08T13:20:42.764Z,1.70
2022-12-08T13:23:27.701Z,1.00
2022-12-08T13:26:09.374Z,1.67
2022-12-08T13:28:58.661Z,1.20
2022-12-08T13:31:37.390Z,0.90
2022-12-08T13:34:12.786Z,0.90
2022-12-08T13:36:47.615Z,0.75
2022-12-08T13:39:25.541Z,0.50
2022-12-08T13:42:01.072Z,0.75
2022-12-08T13:48:05.916Z,0.63
2022-12-08T13:54:16.325Z,1.00
2022-12-08T13:59:33.928Z,0.70
2022-12-08T14:02:18.040Z,1.08
2022-12-08T14:05:17.001Z,0.50
2022-12-08T14:07:34.195Z,0.60
2022-12-08T14:10:03.520Z,0.80
2022-12-08T14:12:31.547Z,3.70
2022-12-08T14:15:04.382Z,1.38
2022-12-08T14:17:32.240Z,1.30
2022-12-08T14:20:24.928Z,1.00
2022-12-08T14:22:52.447Z,0.88
2022-12-08T14:25:19.576Z,1.93
2022-12-08T14:27:47.159Z,0.82
2022-12-08T14:30:14.043Z,1.50
2022-12-08T14:32:46.722Z,1.15
2022-12-08T14:35:39.547Z,0.90
2022-12-08T14:38:13.578Z,1.17
2022-12-08T14:40:42.386Z,1.42
2022-12-08T14:43:08.775Z,1.65
2022-12-08T14:45:46.048Z,1.30
2022-12-08T14:48:33.618Z,1.77
2022-12-08T14:51:03.445Z,2.47
2022-12-08T14:53:53.238Z,1.42
2022-12-08T14:56:24.492Z,1.80
2022-12-08T14:59:09.347Z,2.65
2022-12-08T15:01:36.860Z,2.63
2022-12-08T15:04:13.104Z,2.73
2022-12-08T15:06:59.013Z,3.47
2022-12-08T15:09:32.551Z,2.80
2022-12-08T15:12:06.493Z,13.65
2022-12-08T15:14:35.425Z,3.65
2022-12-08T15:17:02.723Z,2.10
2022-12-08T15:19:31.851Z,2.45
2022-12-08T15:22:09.329Z,2.40
2022-12-08T15:24:35.783Z,4.28
2022-12-08T15:27:03.750Z,3.28
2022-12-08T15:29:30.878Z,3.37
2022-12-08T15:32:00.272Z,2.30
2022-12-08T15:34:26.813Z,2.15
2022-12-08T15:36:54.864Z,2.88
2022-12-08T15:39:33.632Z,2.05
2022-12-08T15:42:01.855Z,2.17
2022-12-08T15:44:29.280Z,2.88
2022-12-08T15:46:56.096Z,4.18
2022-12-08T15:49:24.014Z,2.67
2022-12-08T15:51:55.679Z,3.28
2022-12-08T15:54:27.183Z,3.73
2022-12-08T15:57:18.656Z,2.70
2022-12-08T15:59:43.136Z,4.25
2022-12-08T16:02:13.725Z,4.95
2022-12-08T16:07:30.441Z,1.97
2022-12-08T16:09:57.223Z,2.45
2022-12-08T16:15:59.092Z,3.65
2022-12-08T16:18:31.591Z,2.90
2022-12-08T16:21:31.618Z,4.40
2022-12-08T16:23:45.822Z,3.17
2022-12-08T16:26:44.221Z,2.88
2022-12-08T16:29:05.765Z,3.67
2022-12-08T16:31:32.645Z,4.63
2022-12-08T16:33:59.416Z,4.47
2022-12-08T16:36:25.865Z,4.38
2022-12-08T16:38:52.308Z,3.78
2022-12-08T16:41:37.333Z,5.78
2022-12-08T16:44:05.684Z,4.68
2022-12-08T16:46:32.244Z,4.47
2022-12-08T16:48:59.109Z,4.50
2022-12-08T16:51:27.222Z,4.55
2022-12-08T16:53:58.314Z,11.45
2022-12-08T16:56:32.209Z,4.25
2022-12-08T16:58:59.409Z,4.27
2022-12-08T17:01:25.846Z,4.75
2022-12-08T17:04:22.424Z,5.28
2022-12-08T17:06:38.662Z,6.20
2022-12-08T17:09:05.502Z,3.70
2022-12-08T17:11:37.483Z,4.27
2022-12-08T17:14:09.081Z,6.40
2022-12-08T17:16:35.668Z,4.05
2022-12-08T17:19:02.277Z,6.13
2022-12-08T17:21:28.603Z,33.15
2022-12-08T17:23:55.072Z,18.53
2022-12-08T17:26:21.436Z,6.47
2022-12-08T17:29:03.233Z,3.17
2022-12-08T17:31:32.046Z,6.35
2022-12-08T17:34:04.140Z,3.20
2022-12-08T17:36:30.516Z,3.80
2022-12-08T17:38:59.358Z,3.72
2022-12-08T17:41:25.767Z,8.45
2022-12-08T17:43:52.227Z,3.45
2022-12-08T17:46:20.384Z,3.83
2022-12-08T17:48:47.473Z,4.07
2022-12-08T17:51:14.608Z,4.25
2022-12-08T17:53:41.178Z,6.53
2022-12-08T17:56:15.123Z,4.10
2022-12-08T17:58:41.620Z,4.40
2022-12-08T18:01:11.696Z,3.37
2022-12-08T18:03:48.535Z,3.58
2022-12-08T18:06:15.003Z,3.38
2022-12-08T18:08:41.337Z,4.22
2022-12-08T18:11:16.067Z,4.68
2022-12-08T18:13:42.474Z,6.07
2022-12-08T18:16:09.014Z,6.30
2022-12-08T18:18:35.890Z,5.25
2022-12-08T18:21:02.304Z,6.35
2022-12-08T18:23:28.783Z,5.72
2022-12-08T18:25:55.163Z,4.50
2022-12-08T18:28:21.628Z,5.38
2022-12-08T18:30:48.072Z,6.25
2022-12-08T18:33:14.537Z,6.28
2022-12-08T18:35:41.013Z,9.05
2022-12-08T18:38:07.476Z,6.40
2022-12-08T18:40:33.856Z,6.65
2022-12-08T18:43:00.232Z,9.07
2022-12-08T18:45:26.664Z,7.00
2022-12-08T18:47:53.137Z,7.30
2022-12-08T18:50:19.572Z,7.33
2022-12-08T18:52:46.503Z,7.32
2022-12-08T18:55:13.605Z,6.03
2022-12-08T18:57:42.849Z,6.47
2022-12-08T19:00:12.600Z,6.55
2022-12-08T19:02:39.189Z,8.07
2022-12-08T19:05:06.788Z,9.35
2022-12-08T19:07:33.183Z,10.95
2022-12-08T19:09:59.656Z,9.63
2022-12-08T19:12:26.383Z,6.68
2022-12-08T19:14:52.806Z,7.90
2022-12-08T19:17:19.230Z,7.35
2022-12-08T19:19:45.605Z,10.50
2022-12-08T19:22:12.344Z,12.80
2022-12-08T19:24:38.793Z,11.60
2022-12-08T19:27:05.681Z,11.40
2022-12-08T19:29:32.215Z,11.70
2022-12-08T19:32:00.223Z,14.35
2022-12-08T19:34:27.111Z,11.75
2022-12-08T19:36:53.726Z,15.85
2022-12-08T19:39:41.214Z,12.47
2022-12-08T19:42:38.438Z,9.93
2022-12-08T19:45:12.425Z,11.98
2022-12-08T19:47:39.423Z,12.57
2022-12-08T19:50:26.105Z,12.95
2022-12-08T19:52:52.653Z,10.43
2022-12-08T19:55:19.200Z,15.75
2022-12-08T19:57:45.602Z,16.90
2022-12-08T20:00:13.002Z,14.43
2022-12-08T20:02:39.520Z,15.23
2022-12-08T20:05:06.466Z,13.23
2022-12-08T20:07:33.144Z,16.05
2022-12-08T20:09:59.699Z,16.77
2022-12-08T20:12:26.174Z,14.25
2022-12-08T20:14:52.874Z,15.10
2022-12-08T20:17:19.485Z,15.77
2022-12-08T20:19:45.934Z,13.73
2022-12-08T20:22:12.385Z,14.05
2022-12-08T20:24:38.834Z,17.92
2022-12-08T20:27:05.212Z,14.77
2022-12-08T20:29:31.786Z,15.37
2022-12-08T20:31:58.492Z,22.73
2022-12-08T20:34:24.931Z,18.27
2022-12-08T20:36:51.342Z,17.42
2022-12-08T20:39:18.582Z,21.65
2022-12-08T20:41:46.531Z,18.50
2022-12-08T20:44:12.952Z,16.42
2022-12-08T20:46:40.011Z,20.58
2022-12-08T20:49:08.273Z,19.10
2022-12-08T20:51:35.213Z,20.85
2022-12-08T20:54:02.107Z,19.50
2022-12-08T20:56:28.566Z,16.38
2022-12-08T20:58:55.973Z,17.42
2022-12-08T21:01:24.309Z,17.13
2022-12-08T21:03:52.290Z,15.55
2022-12-08T21:06:24.544Z,17.07
2022-12-08T21:08:51.763Z,18.10
2022-12-08T21:11:18.743Z,17.70
2022-12-08T21:13:45.440Z,19.67
2022-12-08T21:16:13.672Z,20.48
2022-12-08T21:18:41.243Z,16.43
2022-12-08T21:21:12.202Z,18.55
2022-12-08T21:23:39.643Z,15.88
2022-12-08T21:26:21.699Z,21.50
2022-12-08T21:28:48.534Z,19.98
2022-12-08T21:31:18.048Z,18.90
2022-12-08T21:33:45.083Z,20.00
2022-12-08T21:36:14.048Z,22.48
2022-12-08T21:38:43.314Z,18.52
2022-12-08T21:41:15.524Z,23.23
2022-12-08T21:43:43.216Z,16.70
2022-12-08T21:46:16.828Z,20.98
2022-12-08T21:48:43.864Z,21.70
2022-12-08T21:51:10.627Z,22.55
2022-12-08T21:53:37.381Z,18.80
2022-12-08T21:56:08.772Z,26.80
2022-12-08T21:58:35.361Z,22.30
2022-12-08T22:01:10.028Z,23.52
2022-12-08T22:03:39.138Z,23.25
2022-12-08T22:06:07.926Z,24.95
2022-12-08T22:08:34.890Z,18.77
2022-12-08T22:11:01.790Z,21.25
2022-12-08T22:13:28.377Z,22.52
2022-12-08T22:16:00.216Z,25.67
2022-12-08T22:18:27.105Z,18.92
2022-12-08T22:20:53.971Z,20.00
2022-12-08T22:23:21.327Z,23.15
2022-12-08T22:25:58.839Z,24.98
2022-12-08T22:28:26.537Z,22.08
2022-12-08T22:30:53.320Z,21.52
2022-12-08T22:33:20.237Z,21.47
2022-12-08T22:35:57.552Z,22.83
2022-12-08T22:38:24.477Z,22.40
2022-12-08T22:40:51.240Z,27.85
2022-12-08T22:43:18.274Z,20.20
2022-12-08T22:45:44.824Z,25.07
2022-12-08T22:48:11.439Z,22.85
2022-12-08T22:50:38.247Z,20.23
2022-12-08T22:53:05.356Z,25.52
2022-12-08T22:55:31.891Z,22.52
2022-12-08T22:57:58.268Z,22.47
2022-12-08T23:00:25.027Z,19.13
2022-12-08T23:02:51.704Z,24.35
2022-12-08T23:05:18.499Z,23.85
2022-12-08T23:07:45.456Z,20.23
2022-12-08T23:10:12.148Z,22.90
2022-12-08T23:12:38.948Z,20.88
2022-12-08T23:15:06.090Z,21.92
2022-12-08T23:17:32.745Z,24.60
2022-12-08T23:19:59.246Z,20.05
2022-12-08T23:22:25.859Z,25.67
2022-12-08T23:24:52.310Z,27.05
2022-12-08T23:27:18.764Z,21.40
2022-12-08T23:29:45.320Z,23.90
2022-12-08T23:32:11.841Z,27.00
2022-12-08T23:34:38.482Z,24.87
2022-12-08T23:37:05.155Z,29.65
2022-12-08T23:39:31.591Z,23.75
2022-12-08T23:41:58.322Z,24.17
2022-12-08T23:44:24.950Z,27.05
2022-12-08T23:46:51.522Z,27.83
2022-12-08T23:49:18.157Z,29.10
2022-12-08T23:51:44.687Z,25.25
2022-12-08T23:54:11.137Z,28.88
2022-12-08T23:56:37.803Z,23.10
2022-12-08T23:59:04.254Z,24.17
